createdAt,value
2022-11-15T00:00:20.394Z,18.80
2022-11-15T00:01:41.804Z,17.50
2022-11-15T00:03:02.187Z,17.70
2022-11-15T00:04:22.380Z,14.80
2022-11-15T00:05:44.020Z,15.20
2022-11-15T00:07:04.875Z,16.90
2022-11-15T00:08:27.360Z,15.90
2022-11-15T00:09:47.619Z,13.50
2022-11-15T00:11:11.019Z,15.80
2022-11-15T00:12:31.661Z,15.70
2022-11-15T00:15:25.034Z,15.00
2022-11-15T00:16:46.257Z,12.90
2022-11-15T00:18:09.317Z,17.20
2022-11-15T00:19:29.738Z,17.80
2022-11-15T00:20:50.127Z,15.20
2022-11-15T00:22:10.234Z,16.10
2022-11-15T00:23:30.949Z,14.80
2022-11-15T00:24:51.708Z,16.50
2022-11-15T00:26:14.515Z,19.20
2022-11-15T00:27:35.418Z,16.00
2022-11-15T00:28:55.680Z,18.40
2022-11-15T00:30:17.264Z,15.40
2022-11-15T00:31:37.538Z,19.20
2022-11-15T00:33:04.714Z,16.80
2022-11-15T00:34:24.952Z,15.20
2022-11-15T00:35:45.416Z,17.20
2022-11-15T00:37:06.984Z,17.20
2022-11-15T00:38:34.054Z,20.20
2022-11-15T00:39:54.724Z,17.10
2022-11-15T00:41:15.130Z,17.30
2022-11-15T00:42:35.991Z,18.30
2022-11-15T00:43:56.676Z,20.20
2022-11-15T00:45:17.360Z,16.40
2022-11-15T00:46:37.714Z,18.90
2022-11-15T00:47:59.248Z,19.20
2022-11-15T00:49:19.747Z,17.90
2022-11-15T00:50:41.310Z,18.90
2022-11-15T00:52:01.584Z,17.30
2022-11-15T00:53:22.355Z,16.80
2022-11-15T00:54:42.869Z,17.50
2022-11-15T00:56:04.059Z,17.00
2022-11-15T00:57:24.749Z,16.10
2022-11-15T00:58:45.591Z,19.60
2022-11-15T01:00:09.194Z,16.70
2022-11-15T01:01:29.993Z,11.40
2022-11-15T01:02:50.587Z,17.10
2022-11-15T01:04:11.547Z,19.40
2022-11-15T01:05:31.900Z,13.70
2022-11-15T01:06:52.451Z,14.80
2022-11-15T01:08:14.241Z,13.20
2022-11-15T01:09:34.811Z,16.60
2022-11-15T01:10:57.673Z,12.10
2022-11-15T01:12:18.461Z,15.50
2022-11-15T01:13:40.178Z,20.40
2022-11-15T01:15:02.473Z,16.70
2022-11-15T01:16:22.741Z,16.60
2022-11-15T01:17:43.186Z,17.80
2022-11-15T01:19:03.962Z,11.70
2022-11-15T01:20:24.699Z,16.90
2022-11-15T01:21:45.163Z,15.10
2022-11-15T01:23:05.923Z,16.50
2022-11-15T01:24:26.417Z,16.70
2022-11-15T01:25:46.843Z,13.30
2022-11-15T01:27:07.352Z,14.50
2022-11-15T01:28:37.524Z,17.00
2022-11-15T01:29:58.449Z,15.70
2022-11-15T01:31:20.972Z,13.90
2022-11-15T01:32:41.318Z,15.40
2022-11-15T01:34:02.045Z,15.80
2022-11-15T01:35:23.002Z,16.50
2022-11-15T01:36:43.541Z,15.10
2022-11-15T01:38:03.693Z,14.40
2022-11-15T01:39:24.275Z,19.00
2022-11-15T01:40:45.151Z,9.70
2022-11-15T01:42:06.174Z,14.30
2022-11-15T01:43:30.646Z,12.90
2022-11-15T01:44:52.594Z,16.50
2022-11-15T01:46:23.873Z,15.40
2022-11-15T01:47:48.727Z,9.90
2022-11-15T01:49:18.741Z,13.60
2022-11-15T01:50:39.851Z,15.20
2022-11-15T01:52:03.767Z,15.90
2022-11-15T01:53:26.641Z,14.60
2022-11-15T01:54:50.759Z,16.80
2022-11-15T01:56:20.907Z,14.70
2022-11-15T01:57:44.654Z,14.40
2022-11-15T01:59:08.340Z,16.80
2022-11-15T02:00:30.162Z,17.80
2022-11-15T02:01:52.401Z,14.60
2022-11-15T02:03:12.911Z,14.80
2022-11-15T02:04:36.650Z,16.40
2022-11-15T02:05:58.814Z,15.70
2022-11-15T02:07:22.108Z,15.60
2022-11-15T02:08:44.347Z,14.90
2022-11-15T02:10:11.012Z,13.70
2022-11-15T02:11:31.843Z,16.30
2022-11-15T02:12:54.754Z,20.10
2022-11-15T02:14:18.673Z,16.40
2022-11-15T02:15:43.689Z,13.40
2022-11-15T02:17:29.403Z,14.20
2022-11-15T02:18:59.677Z,17.10
2022-11-15T02:20:45.097Z,14.70
2022-11-15T02:22:24.481Z,16.40
2022-11-15T02:24:09.029Z,7.80
2022-11-15T02:25:33.057Z,17.00
2022-11-15T02:27:06.811Z,14.80
2022-11-15T02:28:33.991Z,16.80
2022-11-15T02:30:19.041Z,17.60
2022-11-15T02:33:35.679Z,15.80
2022-11-15T02:35:03.096Z,14.20
2022-11-15T02:36:42.167Z,19.90
2022-11-15T02:38:15.058Z,19.60
2022-11-15T02:39:55.940Z,14.30
2022-11-15T02:41:23.192Z,20.00
2022-11-15T02:42:47.523Z,17.70
2022-11-15T02:44:11.556Z,18.20
2022-11-15T02:45:35.518Z,18.70
2022-11-15T02:47:02.925Z,19.60
2022-11-15T02:48:26.451Z,18.00
2022-11-15T02:49:55.621Z,17.10
2022-11-15T02:51:17.216Z,22.50
2022-11-15T02:52:37.499Z,20.40
2022-11-15T02:53:58.140Z,21.70
2022-11-15T02:55:31.356Z,18.70
2022-11-15T02:56:55.549Z,17.50
2022-11-15T02:58:34.666Z,23.10
2022-11-15T03:00:11.231Z,24.80
2022-11-15T03:01:53.870Z,22.10
2022-11-15T03:03:37.906Z,20.50
2022-11-15T03:05:23.483Z,25.20
2022-11-15T03:07:04.507Z,21.80
2022-11-15T03:08:32.074Z,19.90
2022-11-15T03:09:58.231Z,20.50
2022-11-15T03:11:22.329Z,15.60
2022-11-15T03:12:55.053Z,15.90
2022-11-15T03:14:34.581Z,21.10
2022-11-15T03:16:04.677Z,17.80
2022-11-15T03:17:40.972Z,16.70
2022-11-15T03:19:28.059Z,18.90
2022-11-15T03:20:51.243Z,18.50
2022-11-15T03:22:18.416Z,19.40
2022-11-15T03:23:40.412Z,22.40
2022-11-15T03:25:04.529Z,24.20
2022-11-15T03:26:26.404Z,17.30
2022-11-15T03:27:50.888Z,19.60
2022-11-15T03:29:30.040Z,20.60
2022-11-15T03:30:53.966Z,16.50
2022-11-15T03:32:17.976Z,20.20
2022-11-15T03:33:39.285Z,19.90
2022-11-15T03:35:06.834Z,20.60
2022-11-15T03:36:28.767Z,20.90
2022-11-15T03:37:53.754Z,21.40
2022-11-15T03:39:20.283Z,20.50
2022-11-15T03:40:40.521Z,18.10
2022-11-15T03:43:26.731Z,16.60
2022-11-15T03:45:00.061Z,13.00
2022-11-15T03:46:36.446Z,4.60
2022-11-15T03:48:06.274Z,20.60
2022-11-15T03:49:33.007Z,17.50
2022-11-15T03:50:54.417Z,18.40
2022-11-15T03:52:20.553Z,19.30
2022-11-15T03:53:42.112Z,13.60
2022-11-15T03:55:06.424Z,16.70
2022-11-15T03:56:27.323Z,15.60
2022-11-15T03:57:54.219Z,15.50
2022-11-15T03:59:14.808Z,19.50
2022-11-15T04:00:35.635Z,12.60
2022-11-15T04:01:56.176Z,17.30
2022-11-15T04:03:16.666Z,19.60
2022-11-15T04:04:37.208Z,14.80
2022-11-15T04:05:57.897Z,14.50
2022-11-15T04:07:18.293Z,17.10
2022-11-15T04:08:39.361Z,20.00
2022-11-15T04:10:00.773Z,15.20
2022-11-15T04:11:21.324Z,20.90
2022-11-15T04:12:46.045Z,16.30
2022-11-15T04:14:07.336Z,17.70
2022-11-15T04:15:28.400Z,14.80
2022-11-15T04:16:49.982Z,17.80
2022-11-15T04:18:10.930Z,18.20
2022-11-15T04:19:31.581Z,14.70
2022-11-15T04:20:52.903Z,18.10
2022-11-15T04:22:13.468Z,17.80
2022-11-15T04:23:34.140Z,16.90
2022-11-15T04:24:55.237Z,20.00
2022-11-15T04:26:19.089Z,16.20
2022-11-15T04:27:40.492Z,17.20
2022-11-15T04:29:01.659Z,18.50
2022-11-15T04:30:22.311Z,14.80
2022-11-15T04:31:43.210Z,16.50
2022-11-15T04:33:04.716Z,13.30
2022-11-15T04:34:25.400Z,19.40
2022-11-15T04:35:45.926Z,16.10
2022-11-15T04:37:06.518Z,18.50
2022-11-15T04:38:26.928Z,19.10
2022-11-15T04:39:47.412Z,18.80
2022-11-15T04:41:08.093Z,12.00
2022-11-15T04:42:30.982Z,19.80
2022-11-15T04:43:51.426Z,18.40
2022-11-15T04:45:11.864Z,19.60
2022-11-15T04:46:32.583Z,21.10
2022-11-15T04:47:53.170Z,21.30
2022-11-15T04:49:13.815Z,21.80
2022-11-15T04:50:34.232Z,17.60
2022-11-15T04:51:54.748Z,16.50
2022-11-15T04:53:15.134Z,20.90
2022-11-15T04:54:35.927Z,23.60
2022-11-15T04:55:56.409Z,20.10
2022-11-15T04:57:17.214Z,20.40
2022-11-15T04:58:38.301Z,18.20
2022-11-15T04:59:58.771Z,17.30
2022-11-15T05:01:19.900Z,16.20
2022-11-15T05:02:41.950Z,18.00
2022-11-15T05:04:02.792Z,18.30
2022-11-15T05:05:25.225Z,18.80
2022-11-15T05:06:51.096Z,18.10
2022-11-15T05:08:12.188Z,14.50
2022-11-15T05:09:32.974Z,18.00
2022-11-15T05:10:53.753Z,21.10
2022-11-15T05:12:14.067Z,21.90
2022-11-15T05:13:34.870Z,19.60
2022-11-15T05:14:55.076Z,16.40
2022-11-15T05:16:16.606Z,19.60
2022-11-15T05:17:37.001Z,22.20
2022-11-15T05:18:57.504Z,17.50
2022-11-15T05:20:18.855Z,18.30
2022-11-15T05:21:39.616Z,19.70
2022-11-15T05:23:01.480Z,18.30
2022-11-15T05:24:21.946Z,18.80
2022-11-15T05:25:42.322Z,24.90
2022-11-15T05:27:03.117Z,24.80
2022-11-15T05:28:23.403Z,18.30
2022-11-15T05:29:44.181Z,19.50
2022-11-15T05:31:10.222Z,17.50
2022-11-15T05:32:31.385Z,25.40
2022-11-15T05:33:53.247Z,41.70
2022-11-15T05:35:29.376Z,24.80
2022-11-15T05:36:49.441Z,24.20
2022-11-15T05:38:10.300Z,19.30
2022-11-15T05:39:30.988Z,20.60
2022-11-15T05:40:51.243Z,24.30
2022-11-15T05:42:14.532Z,20.90
2022-11-15T05:43:37.643Z,19.70
2022-11-15T05:45:00.414Z,21.80
2022-11-15T05:46:20.973Z,23.50
2022-11-15T05:47:42.130Z,20.20
2022-11-15T05:49:05.802Z,26.10
2022-11-15T05:50:27.468Z,23.80
2022-11-15T05:51:50.982Z,25.00
2022-11-15T05:53:14.815Z,16.80
2022-11-15T05:54:37.359Z,25.90
2022-11-15T05:55:59.208Z,23.20
2022-11-15T05:57:20.613Z,24.50
2022-11-15T05:58:42.320Z,25.60
2022-11-15T06:00:05.174Z,24.80
2022-11-15T06:01:27.036Z,22.00
2022-11-15T06:02:47.372Z,23.80
2022-11-15T06:04:08.339Z,24.80
2022-11-15T06:05:29.533Z,25.10
2022-11-15T06:06:50.193Z,20.70
2022-11-15T06:08:10.442Z,23.30
2022-11-15T06:09:32.368Z,21.90
2022-11-15T06:10:53.059Z,19.40
2022-11-15T06:12:14.526Z,24.70
2022-11-15T06:13:35.876Z,10.80
2022-11-15T06:14:57.684Z,13.20
2022-11-15T06:16:18.160Z,21.60
2022-11-15T06:17:39.030Z,23.80
2022-11-15T06:18:59.502Z,23.70
2022-11-15T06:20:19.631Z,20.60
2022-11-15T06:21:40.183Z,21.30
2022-11-15T06:23:03.369Z,22.90
2022-11-15T06:24:25.751Z,21.00
2022-11-15T06:25:46.135Z,24.60
2022-11-15T06:27:07.706Z,24.60
2022-11-15T06:28:32.572Z,22.60
2022-11-15T06:29:52.876Z,23.30
2022-11-15T06:31:13.614Z,22.00
2022-11-15T06:32:34.127Z,20.50
2022-11-15T06:33:55.556Z,25.00
2022-11-15T06:35:16.690Z,25.50
2022-11-15T06:36:37.795Z,24.20
2022-11-15T06:38:05.619Z,20.70
2022-11-15T06:39:26.382Z,23.60
2022-11-15T06:40:46.632Z,27.90
2022-11-15T06:42:08.852Z,18.80
2022-11-15T06:43:29.783Z,25.10
2022-11-15T06:44:50.450Z,25.70
2022-11-15T06:46:11.092Z,31.30
2022-11-15T06:47:31.600Z,32.10
2022-11-15T06:48:53.241Z,25.40
2022-11-15T06:50:14.148Z,23.50
2022-11-15T06:51:34.414Z,24.00
2022-11-15T06:52:54.968Z,28.40
2022-11-15T06:54:15.903Z,20.90
2022-11-15T06:55:36.767Z,27.30
2022-11-15T06:56:57.295Z,26.00
2022-11-15T06:58:18.302Z,24.20
2022-11-15T06:59:40.698Z,31.80
2022-11-15T07:01:04.154Z,30.40
2022-11-15T07:02:25.109Z,23.40
2022-11-15T07:03:45.972Z,22.30
2022-11-15T07:05:07.073Z,20.70
2022-11-15T07:06:27.496Z,28.10
2022-11-15T07:07:55.481Z,29.20
2022-11-15T07:09:15.749Z,24.10
2022-11-15T07:10:36.134Z,24.60
2022-11-15T07:11:56.703Z,29.30
2022-11-15T07:13:18.887Z,23.10
2022-11-15T07:14:39.557Z,25.60
2022-11-15T07:16:06.256Z,23.70
2022-11-15T07:17:26.792Z,24.60
2022-11-15T07:18:47.258Z,23.20
2022-11-15T07:20:09.535Z,24.40
2022-11-15T07:21:30.786Z,24.00
2022-11-15T07:22:51.198Z,23.80
2022-11-15T07:24:11.755Z,21.40
2022-11-15T07:25:32.318Z,29.00
2022-11-15T07:26:52.741Z,21.90
2022-11-15T07:28:13.463Z,31.80
2022-11-15T07:29:35.140Z,38.20
2022-11-15T07:30:55.755Z,31.10
2022-11-15T07:32:16.187Z,29.40
2022-11-15T07:33:36.629Z,22.10
2022-11-15T07:34:57.607Z,23.60
2022-11-15T07:36:18.176Z,28.30
2022-11-15T07:37:38.412Z,23.00
2022-11-15T07:38:58.855Z,15.40
2022-11-15T07:40:19.335Z,17.50
2022-11-15T07:41:39.484Z,19.50
2022-11-15T07:43:02.028Z,17.70
2022-11-15T07:44:23.669Z,22.50
2022-11-15T07:45:46.268Z,20.00
2022-11-15T07:47:06.968Z,23.30
2022-11-15T07:48:35.700Z,22.30
2022-11-15T07:49:49.343Z,15.90
2022-11-15T07:51:14.220Z,16.90
2022-11-15T07:52:35.021Z,19.70
2022-11-15T07:53:56.168Z,17.30
2022-11-15T07:55:17.425Z,20.80
2022-11-15T07:56:37.951Z,16.40
2022-11-15T07:58:09.327Z,18.30
2022-11-15T07:59:29.809Z,16.90
2022-11-15T08:00:50.456Z,14.50
2022-11-15T08:02:10.926Z,19.40
2022-11-15T08:03:33.629Z,16.60
2022-11-15T08:04:54.449Z,17.20
2022-11-15T08:06:15.368Z,21.70
2022-11-15T08:07:35.830Z,25.40
2022-11-15T08:08:56.212Z,20.80
2022-11-15T08:10:17.309Z,17.40
2022-11-15T08:11:38.007Z,17.00
2022-11-15T08:13:06.759Z,22.40
2022-11-15T08:14:27.339Z,16.90
2022-11-15T08:15:51.055Z,20.90
2022-11-15T08:17:10.451Z,15.60
2022-11-15T08:18:31.910Z,22.80
2022-11-15T08:19:52.625Z,14.50
2022-11-15T08:21:18.524Z,22.20
2022-11-15T08:22:39.163Z,16.22
2022-11-15T08:24:00.192Z,21.50
2022-11-15T08:25:20.923Z,23.50
2022-11-15T08:26:41.533Z,16.40
2022-11-15T08:28:05.079Z,19.30
2022-11-15T08:29:25.432Z,22.60
2022-11-15T08:30:46.048Z,17.10
2022-11-15T08:32:06.116Z,16.70
2022-11-15T08:33:27.413Z,17.70
2022-11-15T08:34:48.408Z,21.90
2022-11-15T08:36:13.785Z,18.10
2022-11-15T08:37:34.290Z,24.40
2022-11-15T08:38:54.768Z,18.30
2022-11-15T08:40:17.258Z,16.80
2022-11-15T08:41:38.236Z,17.70
2022-11-15T08:42:59.366Z,16.50
2022-11-15T08:44:19.902Z,20.20
2022-11-15T08:45:40.423Z,21.50
2022-11-15T08:47:00.993Z,18.90
2022-11-15T08:48:21.974Z,20.50
2022-11-15T08:49:42.953Z,19.90
2022-11-15T08:51:03.819Z,27.90
2022-11-15T08:52:24.573Z,18.90
2022-11-15T08:53:45.644Z,12.80
2022-11-15T08:55:07.092Z,26.20
2022-11-15T08:56:27.471Z,22.90
2022-11-15T08:57:47.867Z,22.70
2022-11-15T08:59:08.480Z,26.40
2022-11-15T09:00:29.848Z,13.40
2022-11-15T09:01:50.343Z,29.80
2022-11-15T09:03:10.774Z,26.60
2022-11-15T09:04:31.860Z,22.20
2022-11-15T09:05:56.610Z,20.50
2022-11-15T09:07:16.925Z,25.60
2022-11-15T09:08:53.075Z,22.20
2022-11-15T09:10:00.431Z,21.30
2022-11-15T09:11:20.856Z,19.70
2022-11-15T09:12:41.889Z,23.90
2022-11-15T09:14:02.638Z,41.00
2022-11-15T09:15:23.549Z,34.00
2022-11-15T09:16:44.254Z,35.40
2022-11-15T09:18:04.947Z,30.50
2022-11-15T09:19:25.388Z,25.70
2022-11-15T09:20:45.961Z,35.50
2022-11-15T09:22:07.920Z,33.70
2022-11-15T09:23:29.026Z,29.40
2022-11-15T09:24:50.030Z,30.20
2022-11-15T09:26:11.479Z,28.30
2022-11-15T09:27:32.115Z,37.40
2022-11-15T09:28:52.416Z,35.60
2022-11-15T09:30:14.760Z,25.10
2022-11-15T09:31:35.413Z,22.90
2022-11-15T09:32:55.733Z,30.80
2022-11-15T09:34:16.580Z,23.50
2022-11-15T09:35:37.718Z,29.30
2022-11-15T09:36:58.600Z,26.30
2022-11-15T09:38:19.495Z,30.80
2022-11-15T09:39:40.124Z,29.40
2022-11-15T09:41:16.910Z,28.40
2022-11-15T09:43:07.547Z,27.40
2022-11-15T09:45:07.584Z,26.00
2022-11-15T09:46:44.685Z,23.70
2022-11-15T09:49:10.737Z,26.20
2022-11-15T09:50:21.742Z,20.40
2022-11-15T09:51:39.284Z,33.00
2022-11-15T09:52:45.564Z,34.00
2022-11-15T09:55:13.304Z,31.80
2022-11-15T09:56:19.095Z,33.70
2022-11-15T09:57:27.356Z,34.90
2022-11-15T09:58:53.947Z,27.20
2022-11-15T10:00:46.050Z,44.20
2022-11-15T10:01:54.523Z,29.80
2022-11-15T10:03:12.327Z,24.20
2022-11-15T10:04:15.613Z,22.70
2022-11-15T10:05:21.133Z,20.50
2022-11-15T10:06:25.389Z,30.70
2022-11-15T10:07:33.727Z,25.30
2022-11-15T10:08:57.442Z,19.40
2022-11-15T10:10:18.217Z,29.70
2022-11-15T10:11:37.277Z,22.40
2022-11-15T10:12:34.060Z,22.00
2022-11-15T10:13:39.143Z,25.50
2022-11-15T10:14:42.708Z,21.00
2022-11-15T10:15:46.775Z,25.60
2022-11-15T10:17:05.252Z,28.70
2022-11-15T10:18:16.617Z,17.90
2022-11-15T10:19:43.844Z,27.10
2022-11-15T10:21:01.827Z,32.10
2022-11-15T10:22:29.055Z,27.80
2022-11-15T10:23:32.499Z,26.90
2022-11-15T10:24:37.914Z,23.70
2022-11-15T10:25:40.041Z,20.60
2022-11-15T10:26:48.332Z,16.90
2022-11-15T10:27:56.455Z,17.90
2022-11-15T10:28:58.242Z,17.30
2022-11-15T10:30:00.493Z,15.44
2022-11-15T10:31:03.772Z,23.90
2022-11-15T10:32:10.652Z,16.60
2022-11-15T10:33:21.986Z,27.55
2022-11-15T10:34:25.742Z,22.10
2022-11-15T10:35:30.201Z,20.40
2022-11-15T10:36:32.508Z,18.80
2022-11-15T10:37:34.291Z,23.10
2022-11-15T10:38:54.521Z,21.78
2022-11-15T10:41:34.369Z,22.70
2022-11-15T10:42:36.390Z,19.30
2022-11-15T10:43:40.511Z,23.30
2022-11-15T10:44:44.370Z,23.80
2022-11-15T10:45:47.168Z,21.70
2022-11-15T10:46:58.393Z,21.27
2022-11-15T10:48:16.708Z,26.40
2022-11-15T10:50:33.754Z,21.80
2022-11-15T10:51:39.235Z,18.20
2022-11-15T10:52:44.725Z,19.00
2022-11-15T10:53:47.487Z,21.80
2022-11-15T10:54:59.117Z,21.27
2022-11-15T10:56:07.274Z,25.10
2022-11-15T10:57:13.374Z,19.90
2022-11-15T10:58:37.155Z,29.30
2022-11-15T10:59:41.771Z,24.90
2022-11-15T11:00:44.562Z,29.40
2022-11-15T11:01:48.079Z,29.27
2022-11-15T11:03:02.468Z,30.90
2022-11-15T11:04:10.237Z,26.40
2022-11-15T11:05:30.857Z,24.50
2022-11-15T11:06:51.510Z,26.00
2022-11-15T11:09:11.774Z,22.10
2022-11-15T11:10:51.003Z,27.00
2022-11-15T11:11:28.086Z,24.00
2022-11-15T11:12:33.248Z,24.30
2022-11-15T11:13:40.112Z,27.50
2022-11-15T11:14:42.402Z,28.30
2022-11-15T11:15:47.470Z,27.10
2022-11-15T11:16:54.101Z,21.40
2022-11-15T11:18:05.284Z,25.10
2022-11-15T11:19:29.171Z,26.20
2022-11-15T11:20:41.323Z,23.30
2022-11-15T11:22:03.318Z,27.90
2022-11-15T11:23:25.766Z,25.20
2022-11-15T11:24:40.084Z,28.10
2022-11-15T11:25:57.671Z,24.10
2022-11-15T11:27:16.487Z,27.50
2022-11-15T11:28:30.879Z,29.40
2022-11-15T11:29:51.399Z,26.10
2022-11-15T11:31:32.363Z,31.90
2022-11-15T11:32:37.952Z,27.40
2022-11-15T11:33:47.544Z,30.20
2022-11-15T11:35:10.569Z,25.50
2022-11-15T11:36:37.295Z,34.20
2022-11-15T11:37:55.155Z,24.80
2022-11-15T11:39:12.635Z,21.00
2022-11-15T11:40:29.841Z,27.80
2022-11-15T11:42:04.500Z,29.70
2022-11-15T11:43:19.473Z,24.00
2022-11-15T11:44:31.557Z,23.70
2022-11-15T11:45:56.950Z,29.00
2022-11-15T11:47:02.650Z,27.30
2022-11-15T11:48:18.051Z,25.10
2022-11-15T11:49:41.675Z,17.90
2022-11-15T11:50:46.641Z,22.70
2022-11-15T11:51:59.126Z,20.70
2022-11-15T11:53:11.203Z,22.20
2022-11-15T11:54:17.027Z,21.80
2022-11-15T11:55:39.777Z,19.60
2022-11-15T11:56:44.670Z,24.50
2022-11-15T11:58:10.204Z,23.70
2022-11-15T11:59:18.992Z,25.80
2022-11-15T12:00:23.764Z,24.00
2022-11-15T12:01:38.933Z,22.60
2022-11-15T12:03:01.630Z,24.20
2022-11-15T12:04:07.991Z,23.60
2022-11-15T12:05:22.874Z,19.10
2022-11-15T12:06:37.536Z,24.10
2022-11-15T12:07:43.401Z,19.50
2022-11-15T12:09:00.487Z,24.80
2022-11-15T12:10:14.857Z,27.00
2022-11-15T12:11:26.492Z,29.20
2022-11-15T12:12:49.323Z,25.80
2022-11-15T12:13:56.018Z,32.80
2022-11-15T12:15:10.564Z,25.80
2022-11-15T12:16:22.284Z,20.40
2022-11-15T12:17:30.602Z,24.10
2022-11-15T12:18:33.727Z,25.90
2022-11-15T12:19:37.193Z,21.80
2022-11-15T12:20:42.789Z,22.50
2022-11-15T12:21:52.295Z,21.10
2022-11-15T12:23:07.153Z,27.90
2022-11-15T12:24:32.108Z,27.90
2022-11-15T12:25:37.903Z,25.10
2022-11-15T12:26:44.625Z,26.60
2022-11-15T12:27:56.417Z,27.90
2022-11-15T12:29:07.905Z,27.10
2022-11-15T12:30:19.116Z,26.20
2022-11-15T12:31:37.270Z,29.60
2022-11-15T12:32:41.628Z,25.50
2022-11-15T12:33:46.674Z,27.50
2022-11-15T12:34:50.650Z,33.70
2022-11-15T12:36:01.820Z,33.50
2022-11-15T12:37:07.316Z,22.60
2022-11-15T12:38:15.035Z,26.20
2022-11-15T12:39:18.720Z,24.90
2022-11-15T12:40:29.151Z,27.10
2022-11-15T12:43:04.579Z,28.40
2022-11-15T12:44:15.749Z,29.60
2022-11-15T12:45:33.189Z,25.60
2022-11-15T12:46:48.180Z,26.10
2022-11-15T12:47:50.193Z,23.50
2022-11-15T12:48:58.848Z,31.90
2022-11-15T12:50:01.544Z,26.10
2022-11-15T12:51:03.973Z,24.80
2022-11-15T12:52:09.610Z,29.60
2022-11-15T12:53:27.794Z,26.80
2022-11-15T12:54:43.187Z,20.50
2022-11-15T12:55:48.771Z,27.40
2022-11-15T12:57:09.739Z,27.60
2022-11-15T12:58:28.259Z,28.50
2022-11-15T12:59:56.311Z,20.00
2022-11-15T13:00:58.495Z,26.80
2022-11-15T13:02:01.435Z,26.20
2022-11-15T13:03:18.526Z,27.00
2022-11-15T13:04:25.689Z,30.50
2022-11-15T13:05:37.267Z,28.50
2022-11-15T13:06:45.615Z,26.50
2022-11-15T13:07:52.420Z,28.50
2022-11-15T13:08:55.467Z,28.40
2022-11-15T13:10:02.696Z,24.60
2022-11-15T13:11:42.837Z,25.30
2022-11-15T13:12:48.391Z,31.60
2022-11-15T13:13:50.443Z,29.00
2022-11-15T13:15:00.785Z,26.56
2022-11-15T13:16:04.883Z,28.60
2022-11-15T13:18:41.515Z,32.20
2022-11-15T13:19:46.319Z,25.78
2022-11-15T13:20:48.330Z,27.00
2022-11-15T13:21:50.272Z,25.78
2022-11-15T13:22:56.474Z,26.89
2022-11-15T13:23:59.046Z,26.80
2022-11-15T13:25:06.281Z,22.70
2022-11-15T13:26:12.589Z,28.20
2022-11-15T13:27:18.744Z,23.60
2022-11-15T13:28:30.749Z,28.50
2022-11-15T13:29:34.099Z,21.70
2022-11-15T13:30:38.099Z,22.82
2022-11-15T13:31:44.991Z,24.00
2022-11-15T13:32:48.771Z,26.30
2022-11-15T13:33:51.759Z,24.50
2022-11-15T13:34:53.916Z,25.80
2022-11-15T13:35:58.985Z,23.80
2022-11-15T13:37:01.049Z,21.50
2022-11-15T13:38:05.250Z,26.90
2022-11-15T13:39:32.878Z,25.00
2022-11-15T13:40:36.942Z,22.30
2022-11-15T13:41:48.628Z,25.30
2022-11-15T13:42:51.363Z,24.00
2022-11-15T13:43:54.692Z,28.18
2022-11-15T13:45:02.845Z,25.70
2022-11-15T13:46:11.840Z,28.80
2022-11-15T13:47:15.374Z,28.10
2022-11-15T13:48:17.219Z,22.60
2022-11-15T13:49:20.032Z,29.22
2022-11-15T13:50:31.090Z,32.20
2022-11-15T13:51:40.734Z,28.20
2022-11-15T13:52:46.278Z,30.10
2022-11-15T13:53:51.767Z,28.80
2022-11-15T13:55:00.212Z,22.10
2022-11-15T13:56:03.917Z,27.80
2022-11-15T13:57:22.074Z,30.45
2022-11-15T13:58:24.664Z,24.70
2022-11-15T13:59:33.619Z,30.18
2022-11-15T14:00:41.880Z,19.90
2022-11-15T14:01:45.019Z,28.90
2022-11-15T14:02:47.755Z,28.10
2022-11-15T14:03:53.644Z,18.55
2022-11-15T14:04:58.661Z,26.60
2022-11-15T14:06:13.769Z,27.10
2022-11-15T14:07:21.434Z,27.30
2022-11-15T14:08:24.683Z,33.00
2022-11-15T14:09:34.115Z,29.80
2022-11-15T14:10:39.483Z,27.30
2022-11-15T14:13:29.420Z,26.60
2022-11-15T14:14:32.013Z,25.00
2022-11-15T14:15:36.551Z,28.70
2022-11-15T14:16:41.321Z,28.50
2022-11-15T14:17:49.875Z,25.20
2022-11-15T14:18:52.457Z,28.60
2022-11-15T14:19:54.400Z,28.70
2022-11-15T14:21:07.607Z,12.80
2022-11-15T14:22:17.312Z,23.20
2022-11-15T14:23:28.952Z,25.40
2022-11-15T14:24:31.713Z,28.00
2022-11-15T14:25:36.286Z,31.70
2022-11-15T14:26:39.592Z,30.10
2022-11-15T14:27:45.011Z,29.90
2022-11-15T14:28:47.408Z,29.50
2022-11-15T14:29:49.739Z,33.90
2022-11-15T14:30:54.293Z,33.20
2022-11-15T14:32:21.493Z,32.30
2022-11-15T14:33:27.193Z,34.00
2022-11-15T14:34:32.313Z,30.80
2022-11-15T14:35:37.839Z,33.00
2022-11-15T14:36:40.146Z,35.00
2022-11-15T14:37:42.456Z,36.00
2022-11-15T14:38:46.138Z,32.10
2022-11-15T14:39:48.773Z,35.70
2022-11-15T14:40:50.931Z,31.18
2022-11-15T14:41:53.701Z,24.00
2022-11-15T14:42:55.406Z,33.10
2022-11-15T14:43:58.951Z,31.56
2022-11-15T14:45:01.479Z,30.40
2022-11-15T19:03:38.860Z,64.00
2022-11-15T19:04:42.090Z,68.00
2022-11-15T19:06:47.882Z,59.44
2022-11-15T19:07:50.302Z,64.10
2022-11-15T19:08:55.020Z,57.80
2022-11-15T19:09:57.890Z,61.00
2022-11-15T19:11:09.540Z,55.55
2022-11-15T19:12:11.402Z,56.50
2022-11-15T19:13:14.927Z,49.89
2022-11-15T19:14:17.500Z,48.90
2022-11-15T19:15:20.561Z,44.70
2022-11-15T19:16:24.352Z,42.30
2022-11-15T19:17:27.348Z,50.50
2022-11-15T19:18:30.715Z,51.55
2022-11-15T19:19:32.580Z,51.50
2022-11-15T19:20:35.940Z,53.67
2022-11-15T19:21:38.422Z,55.70
2022-11-15T19:22:40.793Z,48.80
2022-11-15T19:23:42.972Z,54.40
2022-11-15T19:24:44.679Z,54.90
2022-11-15T19:26:00.646Z,54.33
2022-11-15T19:27:03.132Z,38.20
2022-11-15T19:28:06.109Z,57.50
2022-11-15T19:29:09.167Z,54.60
2022-11-15T19:30:12.520Z,51.70
2022-11-15T19:31:17.044Z,54.30
2022-11-15T19:32:19.953Z,51.90
2022-11-15T19:33:27.597Z,53.80
2022-11-15T19:34:26.099Z,50.90
2022-11-15T19:35:27.777Z,53.33
2022-11-15T19:36:32.897Z,48.11
2022-11-15T19:37:35.583Z,49.50
2022-11-15T19:38:37.539Z,47.10
2022-11-15T19:39:41.273Z,49.44
2022-11-15T19:40:43.837Z,41.30
2022-11-15T19:41:45.872Z,37.70
2022-11-15T19:42:48.184Z,40.50
2022-11-15T19:43:51.421Z,44.30
2022-11-15T19:44:53.388Z,47.30
2022-11-15T19:46:02.705Z,45.78
2022-11-15T19:47:08.138Z,44.20
2022-11-15T19:48:10.056Z,44.20
2022-11-15T19:49:13.943Z,45.89
2022-11-15T19:50:17.962Z,47.30
2022-11-15T19:51:22.902Z,49.30
2022-11-15T19:52:25.315Z,47.80
2022-11-15T19:53:33.324Z,42.90
2022-11-15T19:54:31.333Z,48.80
2022-11-15T19:55:33.086Z,38.89
2022-11-15T19:56:35.819Z,44.56
2022-11-15T19:57:37.709Z,43.70
2022-11-15T19:58:45.410Z,44.30
2022-11-15T19:59:47.636Z,47.40
2022-11-15T20:00:50.936Z,45.20
2022-11-15T20:01:52.845Z,44.80
2022-11-15T20:02:54.812Z,39.44
2022-11-15T20:03:59.213Z,46.30
2022-11-15T20:05:01.077Z,42.70
2022-11-15T20:06:07.859Z,43.56
2022-11-15T20:07:09.869Z,44.60
2022-11-15T20:08:12.844Z,41.80
2022-11-15T20:09:15.730Z,43.45
2022-11-15T20:10:20.756Z,44.30
2022-11-15T20:11:21.903Z,42.80
2022-11-15T20:12:24.671Z,39.90
2022-11-15T20:13:27.036Z,41.00
2022-11-15T20:14:32.975Z,42.70
2022-11-15T20:15:37.344Z,35.80
2022-11-15T20:16:42.628Z,38.30
2022-11-15T20:17:45.310Z,41.10
2022-11-15T20:18:48.307Z,39.70
2022-11-15T20:19:50.793Z,41.80
2022-11-15T20:20:53.242Z,37.20
2022-11-15T20:21:55.373Z,38.00
2022-11-15T20:23:02.335Z,40.70
2022-11-15T20:24:03.309Z,40.10
2022-11-15T20:25:05.723Z,36.00
2022-11-15T20:26:09.315Z,38.70
2022-11-15T20:27:12.444Z,43.00
2022-11-15T20:28:20.175Z,43.90
2022-11-15T20:29:22.608Z,36.00
2022-11-15T20:30:24.504Z,37.00
2022-11-15T20:31:26.644Z,45.00
2022-11-15T20:32:31.030Z,38.40
2022-11-15T20:33:34.697Z,37.10
2022-11-15T20:34:37.044Z,44.90
2022-11-15T20:35:39.757Z,39.80
2022-11-15T20:36:45.506Z,39.30
2022-11-15T20:37:47.340Z,40.70
2022-11-15T20:38:50.731Z,37.89
2022-11-15T20:39:52.499Z,40.80
2022-11-15T20:40:58.998Z,38.89
2022-11-15T20:41:58.631Z,43.30
2022-11-15T20:43:00.955Z,40.67
2022-11-15T20:44:02.890Z,34.80
2022-11-15T20:45:06.318Z,32.60
2022-11-15T20:46:11.972Z,35.50
2022-11-15T20:47:13.934Z,37.50
2022-11-15T20:48:16.992Z,40.78
2022-11-15T20:49:18.879Z,37.30
2022-11-15T20:50:41.489Z,38.67
2022-11-15T20:51:24.856Z,35.70
2022-11-15T20:52:26.584Z,38.33
2022-11-15T20:53:31.576Z,42.56
2022-11-15T20:54:35.190Z,42.20